DLH1013 MMMX-KMIA
Flight info
| Callsign | DLH1013 |
|---|---|
| Flight time | 2h 17m |
| Altitude | 37000 |
| Route | NOXOS3A NOXOS UT106 AXOMU UM346 CANOA SNDBR3 |
| Aircraft | B789/H-SDE1E2E3FGHIJ2J3J4J5M1RWXY/LB1D1 |
Departure
| Time | 2026-05-04 11:16 |
|---|---|
| Airport | Mexico City Benito Juárez International Airport (MMMX) |
Arrival
| Time | 2026-05-04 13:33 |
|---|---|
| Airport | Miami International Airport (KMIA) |
| Time | Latitude | Longitude | Altitude | Speed | Heading |
|---|---|---|---|---|---|
| 2026-05-04 11:05 | 19.42300 | -99.07996 | 7308 ft | 0 kts | 210° |
| 2026-05-04 11:08 | 19.42305 | -99.07993 | 7308 ft | 2 kts | 211° |
| 2026-05-04 11:10 | 19.42328 | -99.07947 | 7308 ft | 0 kts | 307° |
| 2026-05-04 11:12 | 19.42405 | -99.08195 | 7308 ft | 1 kts | 267° |
| 2026-05-04 11:12 | 19.42406 | -99.08199 | 7308 ft | 1 kts | 282° |
| 2026-05-04 11:12 | 19.42409 | -99.08205 | 7308 ft | 2 kts | 302° |
| 2026-05-04 11:12 | 19.42428 | -99.08225 | 7308 ft | 6 kts | 318° |
| 2026-05-04 11:13 | 19.42482 | -99.08263 | 7308 ft | 13 kts | 330° |
| 2026-05-04 11:13 | 19.42561 | -99.08342 | 7308 ft | 16 kts | 297° |
| 2026-05-04 11:13 | 19.42609 | -99.08445 | 7308 ft | 15 kts | 296° |
| 2026-05-04 11:13 | 19.42647 | -99.08542 | 7308 ft | 14 kts | 290° |
| 2026-05-04 11:14 | 19.42677 | -99.08606 | 7310 ft | 2 kts | 330° |
| 2026-05-04 11:14 | 19.42682 | -99.08606 | 7310 ft | 1 kts | 1° |
| 2026-05-04 11:14 | 19.42686 | -99.08603 | 7310 ft | 1 kts | 31° |
| 2026-05-04 11:16 | 19.44651 | -99.05081 | 7803 ft | 212 kts | 60° |
| 2026-05-04 11:16 | 19.45474 | -99.03738 | 8787 ft | 219 kts | 57° |
| 2026-05-04 11:16 | 19.46360 | -99.02362 | 9217 ft | 243 kts | 56° |
| 2026-05-04 11:17 | 19.47339 | -99.00767 | 9418 ft | 273 kts | 58° |
| 2026-05-04 11:17 | 19.48383 | -98.98980 | 9807 ft | 298 kts | 58° |
| 2026-05-04 11:19 | 19.54731 | -98.84679 | 15860 ft | 321 kts | 71° |
| 2026-05-04 11:19 | 19.55371 | -98.82395 | 16706 ft | 325 kts | 73° |
| 2026-05-04 11:19 | 19.55962 | -98.80103 | 17513 ft | 329 kts | 73° |
| 2026-05-04 11:19 | 19.56565 | -98.77745 | 18357 ft | 332 kts | 73° |
| 2026-05-04 11:20 | 19.57191 | -98.75371 | 19077 ft | 336 kts | 73° |
| 2026-05-04 11:20 | 19.57814 | -98.72961 | 19761 ft | 341 kts | 77° |
| 2026-05-04 11:20 | 19.58236 | -98.70404 | 19900 ft | 366 kts | 78° |
| 2026-05-04 11:20 | 19.58736 | -98.67661 | 19908 ft | 392 kts | 77° |
| 2026-05-04 11:22 | 19.61472 | -98.46580 | 23891 ft | 432 kts | 89° |
| 2026-05-04 11:22 | 19.61393 | -98.43383 | 24416 ft | 435 kts | 89° |
| 2026-05-04 11:23 | 19.61312 | -98.40160 | 24913 ft | 438 kts | 89° |
| 2026-05-04 11:23 | 19.61228 | -98.36913 | 25423 ft | 441 kts | 89° |
| 2026-05-04 11:24 | 19.60683 | -98.16886 | 27990 ft | 466 kts | 88° |
| 2026-05-04 11:25 | 19.60588 | -98.13434 | 28404 ft | 469 kts | 88° |
| 2026-05-04 11:25 | 19.60492 | -98.09962 | 28848 ft | 472 kts | 88° |
| 2026-05-04 11:25 | 19.60394 | -98.06466 | 29157 ft | 478 kts | 88° |
| 2026-05-04 11:26 | 19.60853 | -97.99497 | 29968 ft | 472 kts | 71° |
| 2026-05-04 11:27 | 19.69144 | -97.76404 | 32072 ft | 488 kts | 65° |
| 2026-05-04 11:28 | 19.70356 | -97.73076 | 32354 ft | 491 kts | 65° |
| 2026-05-04 11:28 | 19.71593 | -97.69674 | 32603 ft | 494 kts | 65° |
| 2026-05-04 11:28 | 19.72832 | -97.66266 | 32878 ft | 496 kts | 65° |
| 2026-05-04 11:28 | 19.74075 | -97.62848 | 33147 ft | 498 kts | 65° |
| 2026-05-04 11:29 | 19.75330 | -97.59392 | 33286 ft | 503 kts | 65° |
| 2026-05-04 11:29 | 19.76590 | -97.55920 | 33621 ft | 503 kts | 65° |
| 2026-05-04 11:29 | 19.77845 | -97.52455 | 33985 ft | 503 kts | 65° |
| 2026-05-04 11:29 | 19.79102 | -97.48988 | 34308 ft | 503 kts | 65° |
| 2026-05-04 11:31 | 19.87945 | -97.24527 | 35946 ft | 512 kts | 66° |
| 2026-05-04 11:33 | 19.96876 | -96.99704 | 37049 ft | 514 kts | 67° |
| 2026-05-04 11:33 | 19.99436 | -96.92568 | 37040 ft | 513 kts | 67° |
| 2026-05-04 11:34 | 20.01956 | -96.85532 | 37039 ft | 513 kts | 67° |
| 2026-05-04 11:34 | 20.04497 | -96.78428 | 37033 ft | 513 kts | 67° |
| 2026-05-04 11:35 | 20.07039 | -96.71310 | 37029 ft | 513 kts | 67° |
| 2026-05-04 11:35 | 20.09572 | -96.64208 | 37023 ft | 514 kts | 67° |
| 2026-05-04 11:36 | 20.12106 | -96.57093 | 37016 ft | 514 kts | 67° |
| 2026-05-04 11:36 | 20.14622 | -96.50016 | 37019 ft | 514 kts | 67° |
| 2026-05-04 11:37 | 20.17151 | -96.42893 | 37016 ft | 514 kts | 67° |
| 2026-05-04 11:37 | 20.19251 | -96.36972 | 37016 ft | 515 kts | 67° |
| 2026-05-04 11:38 | 20.22207 | -96.28623 | 37016 ft | 516 kts | 68° |
| 2026-05-04 11:38 | 20.24735 | -96.21472 | 37016 ft | 515 kts | 68° |
| 2026-05-04 11:39 | 20.26836 | -96.15520 | 37017 ft | 516 kts | 68° |
| 2026-05-04 11:40 | 20.36345 | -95.95279 | 37025 ft | 511 kts | 49° |
| 2026-05-04 11:41 | 20.38569 | -95.92316 | 37016 ft | 511 kts | 48° |
| 2026-05-04 11:41 | 20.43004 | -95.86384 | 37017 ft | 511 kts | 49° |
| 2026-05-04 11:42 | 20.47431 | -95.80436 | 37018 ft | 511 kts | 49° |
| 2026-05-04 11:42 | 20.51832 | -95.74533 | 37023 ft | 511 kts | 49° |
| 2026-05-04 11:43 | 20.56255 | -95.68582 | 37021 ft | 511 kts | 49° |
| 2026-05-04 11:43 | 20.60664 | -95.62653 | 37023 ft | 511 kts | 49° |
| 2026-05-04 11:44 | 20.65086 | -95.56695 | 37021 ft | 511 kts | 49° |
| 2026-05-04 11:44 | 20.69510 | -95.50731 | 37020 ft | 512 kts | 49° |
| 2026-05-04 11:45 | 20.73912 | -95.44789 | 37020 ft | 513 kts | 49° |
| 2026-05-04 11:45 | 20.78338 | -95.38809 | 37022 ft | 513 kts | 48° |
| 2026-05-04 11:46 | 20.82761 | -95.32826 | 37019 ft | 513 kts | 48° |
| 2026-05-04 11:46 | 20.87194 | -95.26823 | 37023 ft | 514 kts | 48° |
| 2026-05-04 11:47 | 20.91630 | -95.20811 | 37027 ft | 516 kts | 48° |
| 2026-05-04 11:47 | 20.96055 | -95.14806 | 37026 ft | 516 kts | 48° |
| 2026-05-04 11:48 | 21.00501 | -95.08767 | 37023 ft | 517 kts | 48° |
| 2026-05-04 11:48 | 21.04950 | -95.02706 | 37031 ft | 518 kts | 51° |
| 2026-05-04 11:48 | 21.06847 | -94.99402 | 37046 ft | 523 kts | 63° |
| 2026-05-04 11:49 | 21.08165 | -94.95759 | 37046 ft | 526 kts | 71° |
| 2026-05-04 11:49 | 21.10307 | -94.88308 | 37026 ft | 527 kts | 71° |
| 2026-05-04 11:50 | 21.12446 | -94.80807 | 37030 ft | 527 kts | 70° |
| 2026-05-04 11:50 | 21.14605 | -94.73285 | 37028 ft | 528 kts | 71° |
| 2026-05-04 11:51 | 21.16750 | -94.65744 | 37024 ft | 528 kts | 70° |
| 2026-05-04 11:51 | 21.18899 | -94.58218 | 37029 ft | 528 kts | 71° |
| 2026-05-04 11:52 | 21.21026 | -94.50724 | 37027 ft | 529 kts | 70° |
| 2026-05-04 11:52 | 21.23175 | -94.43161 | 37031 ft | 530 kts | 71° |
| 2026-05-04 11:53 | 21.25314 | -94.35604 | 37020 ft | 530 kts | 71° |
| 2026-05-04 11:53 | 21.27457 | -94.28030 | 37026 ft | 531 kts | 71° |
| 2026-05-04 11:55 | 21.35985 | -93.97722 | 37027 ft | 531 kts | 71° |
| 2026-05-04 11:56 | 21.38110 | -93.90136 | 37016 ft | 531 kts | 71° |
| 2026-05-04 11:56 | 21.40237 | -93.82530 | 37018 ft | 532 kts | 71° |
| 2026-05-04 11:57 | 21.42360 | -93.74920 | 37015 ft | 532 kts | 71° |
| 2026-05-04 11:57 | 21.44483 | -93.67298 | 37017 ft | 532 kts | 71° |
| 2026-05-04 11:58 | 21.46587 | -93.59726 | 37014 ft | 532 kts | 71° |
| 2026-05-04 11:58 | 21.48705 | -93.52096 | 37021 ft | 532 kts | 71° |
| 2026-05-04 11:59 | 21.50818 | -93.44463 | 37024 ft | 533 kts | 71° |
| 2026-05-04 11:59 | 21.52926 | -93.36835 | 37021 ft | 533 kts | 71° |
| 2026-05-04 12:00 | 21.55023 | -93.29235 | 37025 ft | 534 kts | 71° |
| 2026-05-04 12:00 | 21.57133 | -93.21568 | 37016 ft | 534 kts | 71° |
| 2026-05-04 12:01 | 21.59234 | -93.13921 | 37016 ft | 533 kts | 71° |
| 2026-05-04 12:02 | 21.66567 | -92.87117 | 37030 ft | 535 kts | 71° |
| 2026-05-04 12:03 | 21.68660 | -92.79434 | 37031 ft | 536 kts | 71° |
| 2026-05-04 12:03 | 21.70754 | -92.71730 | 37031 ft | 537 kts | 71° |
| 2026-05-04 12:04 | 21.72840 | -92.64042 | 37033 ft | 537 kts | 71° |
| 2026-05-04 12:04 | 21.74928 | -92.56331 | 37030 ft | 538 kts | 71° |
| 2026-05-04 12:05 | 21.77020 | -92.48589 | 37028 ft | 538 kts | 71° |
| 2026-05-04 12:05 | 21.79107 | -92.40854 | 37027 ft | 538 kts | 71° |
| 2026-05-04 12:06 | 21.81191 | -92.33111 | 37030 ft | 538 kts | 71° |
| 2026-05-04 12:06 | 21.83272 | -92.25366 | 37035 ft | 539 kts | 71° |
| 2026-05-04 12:07 | 21.85340 | -92.17648 | 37030 ft | 539 kts | 71° |
| 2026-05-04 12:07 | 21.87416 | -92.09892 | 37031 ft | 538 kts | 71° |
| 2026-05-04 12:08 | 21.89487 | -92.02134 | 37031 ft | 539 kts | 71° |
| 2026-05-04 12:08 | 21.91556 | -91.94368 | 37030 ft | 539 kts | 71° |
| 2026-05-04 12:09 | 21.93608 | -91.86650 | 37030 ft | 540 kts | 71° |
| 2026-05-04 12:09 | 21.95671 | -91.78877 | 37031 ft | 540 kts | 71° |
| 2026-05-04 12:10 | 21.97733 | -91.71088 | 37029 ft | 540 kts | 71° |
| 2026-05-04 12:10 | 21.99793 | -91.63292 | 37030 ft | 540 kts | 71° |
| 2026-05-04 12:11 | 22.01848 | -91.55500 | 37036 ft | 540 kts | 71° |
| 2026-05-04 12:11 | 22.03900 | -91.47702 | 37030 ft | 541 kts | 71° |
| 2026-05-04 12:12 | 22.05937 | -91.39942 | 37034 ft | 541 kts | 71° |
| 2026-05-04 12:12 | 22.07982 | -91.32132 | 37036 ft | 541 kts | 71° |
| 2026-05-04 12:14 | 22.16128 | -91.00857 | 37031 ft | 543 kts | 71° |
| 2026-05-04 12:15 | 22.18169 | -90.92979 | 37030 ft | 543 kts | 71° |
| 2026-05-04 12:15 | 22.20186 | -90.85179 | 37029 ft | 542 kts | 71° |
| 2026-05-04 12:16 | 22.22214 | -90.77318 | 37031 ft | 543 kts | 71° |
| 2026-05-04 12:16 | 22.24236 | -90.69462 | 37032 ft | 543 kts | 71° |
| 2026-05-04 12:17 | 22.26257 | -90.61593 | 37031 ft | 544 kts | 72° |
| 2026-05-04 12:17 | 22.28263 | -90.53769 | 37031 ft | 544 kts | 72° |
| 2026-05-04 12:18 | 22.30279 | -90.45887 | 37029 ft | 544 kts | 72° |
| 2026-05-04 12:18 | 22.32293 | -90.37998 | 37032 ft | 545 kts | 72° |
| 2026-05-04 12:19 | 22.34303 | -90.30107 | 37029 ft | 545 kts | 72° |
| 2026-05-04 12:19 | 22.36306 | -90.22208 | 37031 ft | 545 kts | 72° |
| 2026-05-04 12:20 | 22.38306 | -90.14304 | 37029 ft | 545 kts | 72° |
| 2026-05-04 12:20 | 22.40305 | -90.06390 | 37026 ft | 546 kts | 72° |
| 2026-05-04 12:21 | 22.42287 | -89.98523 | 37031 ft | 546 kts | 72° |
| 2026-05-04 12:21 | 22.44281 | -89.90593 | 37030 ft | 546 kts | 72° |
| 2026-05-04 12:22 | 22.46275 | -89.82645 | 37031 ft | 546 kts | 72° |
| 2026-05-04 12:22 | 22.48263 | -89.74703 | 37030 ft | 547 kts | 72° |
| 2026-05-04 12:23 | 22.50236 | -89.66813 | 37032 ft | 547 kts | 72° |
| 2026-05-04 12:23 | 22.52223 | -89.58862 | 37031 ft | 547 kts | 72° |
| 2026-05-04 12:24 | 22.54200 | -89.50926 | 37031 ft | 547 kts | 72° |
| 2026-05-04 12:24 | 22.56178 | -89.42973 | 37031 ft | 547 kts | 72° |
| 2026-05-04 12:25 | 22.58151 | -89.35021 | 37033 ft | 547 kts | 72° |
| 2026-05-04 12:25 | 22.59779 | -89.28443 | 37028 ft | 547 kts | 72° |
| 2026-05-04 12:26 | 22.62078 | -89.19137 | 37032 ft | 547 kts | 72° |
| 2026-05-04 12:26 | 22.63710 | -89.12513 | 37026 ft | 548 kts | 73° |
| 2026-05-04 12:27 | 22.65988 | -89.03247 | 37031 ft | 548 kts | 73° |
| 2026-05-04 12:27 | 22.67631 | -88.96551 | 37033 ft | 549 kts | 73° |
| 2026-05-04 12:28 | 22.69572 | -88.88621 | 37031 ft | 549 kts | 73° |
| 2026-05-04 12:28 | 22.71526 | -88.80624 | 37029 ft | 549 kts | 73° |
| 2026-05-04 12:29 | 22.73475 | -88.72625 | 37031 ft | 549 kts | 73° |
| 2026-05-04 12:29 | 22.75421 | -88.64620 | 37031 ft | 548 kts | 73° |
| 2026-05-04 12:30 | 22.77360 | -88.56626 | 37032 ft | 549 kts | 73° |
| 2026-05-04 12:30 | 22.79283 | -88.48666 | 37028 ft | 550 kts | 73° |
| 2026-05-04 12:31 | 22.81215 | -88.40646 | 37032 ft | 550 kts | 73° |
| 2026-05-04 12:31 | 22.83143 | -88.32627 | 37033 ft | 550 kts | 73° |
| 2026-05-04 12:32 | 22.86034 | -88.20565 | 37035 ft | 550 kts | 73° |
| 2026-05-04 12:33 | 22.87950 | -88.12554 | 37034 ft | 550 kts | 73° |
| 2026-05-04 12:33 | 22.89871 | -88.04498 | 37035 ft | 550 kts | 73° |
| 2026-05-04 12:34 | 22.91772 | -87.96514 | 37034 ft | 550 kts | 73° |
| 2026-05-04 12:34 | 22.93683 | -87.88461 | 37034 ft | 551 kts | 73° |
| 2026-05-04 12:35 | 22.95592 | -87.80399 | 37034 ft | 551 kts | 73° |
| 2026-05-04 12:35 | 22.97500 | -87.72323 | 37036 ft | 552 kts | 74° |
| 2026-05-04 12:36 | 22.99401 | -87.64258 | 37034 ft | 552 kts | 74° |
| 2026-05-04 12:36 | 23.01288 | -87.56231 | 37034 ft | 552 kts | 74° |
| 2026-05-04 12:37 | 23.03186 | -87.48138 | 37032 ft | 553 kts | 74° |
| 2026-05-04 12:37 | 23.04136 | -87.44082 | 37204 ft | 554 kts | 74° |
| 2026-05-04 12:37 | 23.05086 | -87.40017 | 37447 ft | 554 kts | 74° |
| 2026-05-04 12:37 | 23.06035 | -87.35955 | 37674 ft | 556 kts | 74° |
| 2026-05-04 12:38 | 23.06984 | -87.31883 | 37891 ft | 557 kts | 74° |
| 2026-05-04 12:38 | 23.07936 | -87.27797 | 38103 ft | 558 kts | 74° |
| 2026-05-04 12:38 | 23.08889 | -87.23703 | 38339 ft | 559 kts | 75° |
| 2026-05-04 12:38 | 23.09828 | -87.19662 | 38536 ft | 560 kts | 75° |
| 2026-05-04 12:39 | 23.10783 | -87.15546 | 38762 ft | 560 kts | 75° |
| 2026-05-04 12:39 | 23.11737 | -87.11431 | 38978 ft | 560 kts | 75° |
| 2026-05-04 12:39 | 23.12691 | -87.07309 | 39015 ft | 563 kts | 75° |
| 2026-05-04 12:40 | 23.14593 | -86.99078 | 39017 ft | 559 kts | 75° |
| 2026-05-04 12:40 | 23.16468 | -86.90942 | 39015 ft | 558 kts | 75° |
| 2026-05-04 12:41 | 23.18354 | -86.82738 | 39016 ft | 559 kts | 75° |
| 2026-05-04 12:41 | 23.20235 | -86.74533 | 39019 ft | 559 kts | 75° |
| 2026-05-04 12:42 | 23.22114 | -86.66318 | 39019 ft | 560 kts | 75° |
| 2026-05-04 12:42 | 23.23983 | -86.58149 | 39020 ft | 560 kts | 75° |
| 2026-05-04 12:43 | 23.25861 | -86.49922 | 39026 ft | 561 kts | 75° |
| 2026-05-04 12:43 | 23.27736 | -86.41682 | 39028 ft | 561 kts | 75° |
| 2026-05-04 12:44 | 23.29609 | -86.33432 | 39028 ft | 561 kts | 75° |
| 2026-05-04 12:44 | 23.31467 | -86.25188 | 39029 ft | 561 kts | 75° |
| 2026-05-04 12:45 | 23.33321 | -86.16936 | 39032 ft | 562 kts | 75° |
| 2026-05-04 12:45 | 23.35175 | -86.08670 | 39033 ft | 562 kts | 75° |
| 2026-05-04 12:46 | 23.37022 | -86.00404 | 39029 ft | 562 kts | 75° |
| 2026-05-04 12:46 | 23.38858 | -85.92177 | 39027 ft | 562 kts | 75° |
| 2026-05-04 12:47 | 23.40703 | -85.83890 | 39025 ft | 562 kts | 75° |
| 2026-05-04 12:47 | 23.42539 | -85.75618 | 39027 ft | 562 kts | 75° |
| 2026-05-04 12:48 | 23.44375 | -85.67329 | 39029 ft | 562 kts | 75° |
| 2026-05-04 12:48 | 23.46194 | -85.59090 | 39027 ft | 562 kts | 75° |
| 2026-05-04 12:49 | 23.48019 | -85.50804 | 39027 ft | 563 kts | 76° |
| 2026-05-04 12:49 | 23.49848 | -85.42501 | 39032 ft | 563 kts | 76° |
| 2026-05-04 12:50 | 23.51671 | -85.34193 | 39034 ft | 564 kts | 76° |
| 2026-05-04 12:50 | 23.53494 | -85.25865 | 39031 ft | 564 kts | 76° |
| 2026-05-04 12:51 | 23.55303 | -85.17579 | 39032 ft | 565 kts | 76° |
| 2026-05-04 12:51 | 23.57120 | -85.09229 | 39029 ft | 565 kts | 76° |
| 2026-05-04 12:52 | 23.58923 | -85.00925 | 39031 ft | 566 kts | 76° |
| 2026-05-04 12:52 | 23.60731 | -84.92569 | 39029 ft | 566 kts | 76° |
| 2026-05-04 12:53 | 23.62537 | -84.84205 | 39031 ft | 566 kts | 76° |
| 2026-05-04 12:53 | 23.64335 | -84.75851 | 39025 ft | 566 kts | 76° |
| 2026-05-04 12:54 | 23.66131 | -84.67486 | 39026 ft | 566 kts | 76° |
| 2026-05-04 12:54 | 23.67923 | -84.59113 | 39027 ft | 566 kts | 76° |
| 2026-05-04 12:55 | 23.69697 | -84.50801 | 39028 ft | 567 kts | 76° |
| 2026-05-04 12:55 | 23.71485 | -84.42402 | 39033 ft | 567 kts | 76° |
| 2026-05-04 12:56 | 23.73266 | -84.34011 | 39031 ft | 567 kts | 76° |
| 2026-05-04 12:56 | 23.75043 | -84.25617 | 39032 ft | 567 kts | 76° |
| 2026-05-04 12:57 | 23.76817 | -84.17210 | 39031 ft | 568 kts | 76° |
| 2026-05-04 12:57 | 23.78586 | -84.08797 | 39029 ft | 569 kts | 76° |
| 2026-05-04 12:58 | 23.80342 | -84.00426 | 39030 ft | 569 kts | 76° |
| 2026-05-04 12:58 | 23.82103 | -83.92002 | 39031 ft | 569 kts | 76° |
| 2026-05-04 12:59 | 23.83863 | -83.83563 | 39031 ft | 570 kts | 77° |
| 2026-05-04 12:59 | 23.85621 | -83.75105 | 39030 ft | 570 kts | 77° |
| 2026-05-04 13:00 | 23.87371 | -83.66667 | 39027 ft | 569 kts | 77° |
| 2026-05-04 13:00 | 23.89105 | -83.58275 | 39030 ft | 569 kts | 77° |
| 2026-05-04 13:01 | 23.90848 | -83.49823 | 39032 ft | 570 kts | 77° |
| 2026-05-04 13:01 | 23.92585 | -83.41369 | 39026 ft | 570 kts | 77° |
| 2026-05-04 13:02 | 23.94318 | -83.32913 | 39029 ft | 570 kts | 77° |
| 2026-05-04 13:02 | 23.96047 | -83.24451 | 39032 ft | 571 kts | 77° |
| 2026-05-04 13:03 | 23.97767 | -83.16005 | 39033 ft | 571 kts | 77° |
| 2026-05-04 13:03 | 23.99491 | -83.07518 | 39030 ft | 571 kts | 77° |
| 2026-05-04 13:04 | 24.01415 | -82.99093 | 39029 ft | 571 kts | 75° |
| 2026-05-04 13:04 | 24.03322 | -82.90651 | 39028 ft | 571 kts | 75° |
| 2026-05-04 13:05 | 24.05313 | -82.82236 | 39032 ft | 571 kts | 75° |
| 2026-05-04 13:05 | 24.07245 | -82.73794 | 39029 ft | 572 kts | 75° |
| 2026-05-04 13:06 | 24.09208 | -82.65350 | 39032 ft | 572 kts | 75° |
| 2026-05-04 13:06 | 24.11137 | -82.56946 | 39030 ft | 572 kts | 75° |
| 2026-05-04 13:07 | 24.13083 | -82.48491 | 39027 ft | 573 kts | 75° |
| 2026-05-04 13:07 | 24.15025 | -82.40010 | 39033 ft | 573 kts | 75° |
| 2026-05-04 13:08 | 24.17158 | -82.31663 | 39053 ft | 570 kts | 64° |
| 2026-05-04 13:08 | 24.20550 | -82.23807 | 39032 ft | 571 kts | 61° |
| 2026-05-04 13:09 | 24.23985 | -82.15972 | 39034 ft | 571 kts | 62° |
| 2026-05-04 13:09 | 24.27403 | -82.08111 | 39027 ft | 571 kts | 62° |
| 2026-05-04 13:10 | 24.30831 | -82.00258 | 39030 ft | 571 kts | 62° |
| 2026-05-04 13:10 | 24.34250 | -81.92379 | 39033 ft | 572 kts | 62° |
| 2026-05-04 13:11 | 24.37635 | -81.84583 | 38659 ft | 564 kts | 62° |
| 2026-05-04 13:11 | 24.39326 | -81.80679 | 37911 ft | 566 kts | 62° |
| 2026-05-04 13:11 | 24.41019 | -81.76769 | 37202 ft | 566 kts | 62° |
| 2026-05-04 13:11 | 24.42711 | -81.72858 | 36482 ft | 567 kts | 62° |
| 2026-05-04 13:12 | 24.44409 | -81.68942 | 35745 ft | 566 kts | 60° |
| 2026-05-04 13:12 | 24.46403 | -81.65312 | 35014 ft | 559 kts | 48° |
| 2026-05-04 13:12 | 24.48837 | -81.62000 | 34241 ft | 556 kts | 46° |
| 2026-05-04 13:12 | 24.51297 | -81.58734 | 33460 ft | 554 kts | 46° |
| 2026-05-04 13:13 | 24.53757 | -81.55481 | 32732 ft | 550 kts | 46° |
| 2026-05-04 13:13 | 24.56193 | -81.52251 | 32000 ft | 546 kts | 45° |
| 2026-05-04 13:13 | 24.58607 | -81.49038 | 31294 ft | 543 kts | 45° |
| 2026-05-04 13:13 | 24.61004 | -81.45848 | 30584 ft | 539 kts | 45° |
| 2026-05-04 13:14 | 24.63364 | -81.42711 | 29860 ft | 536 kts | 45° |
| 2026-05-04 13:14 | 24.64962 | -81.40587 | 29381 ft | 533 kts | 45° |
| 2026-05-04 13:14 | 24.67311 | -81.37459 | 28695 ft | 527 kts | 45° |
| 2026-05-04 13:14 | 24.69623 | -81.34373 | 28330 ft | 515 kts | 45° |
| 2026-05-04 13:15 | 24.72612 | -81.30385 | 27670 ft | 505 kts | 45° |
| 2026-05-04 13:15 | 24.74118 | -81.28379 | 27345 ft | 500 kts | 45° |
| 2026-05-04 13:15 | 24.76314 | -81.25449 | 26862 ft | 493 kts | 45° |
| 2026-05-04 13:15 | 24.78478 | -81.22556 | 26535 ft | 483 kts | 45° |
| 2026-05-04 13:16 | 24.80596 | -81.19721 | 25999 ft | 478 kts | 45° |
| 2026-05-04 13:16 | 24.82706 | -81.16905 | 25377 ft | 476 kts | 46° |
| 2026-05-04 13:16 | 24.84811 | -81.14176 | 24772 ft | 470 kts | 40° |
| 2026-05-04 13:16 | 24.87273 | -81.11867 | 24161 ft | 460 kts | 29° |
| 2026-05-04 13:17 | 24.90013 | -81.10140 | 23549 ft | 449 kts | 18° |
| 2026-05-04 13:17 | 24.92849 | -81.08732 | 22902 ft | 445 kts | 19° |
| 2026-05-04 13:17 | 24.95662 | -81.07340 | 22322 ft | 440 kts | 18° |
| 2026-05-04 13:17 | 24.98447 | -81.05975 | 21745 ft | 435 kts | 18° |
| 2026-05-04 13:18 | 25.01199 | -81.04620 | 21173 ft | 431 kts | 19° |
| 2026-05-04 13:18 | 25.03927 | -81.03271 | 20611 ft | 428 kts | 19° |
| 2026-05-04 13:18 | 25.06635 | -81.01931 | 20051 ft | 424 kts | 19° |
| 2026-05-04 13:18 | 25.09284 | -81.00623 | 19500 ft | 421 kts | 19° |
| 2026-05-04 13:19 | 25.11949 | -80.99307 | 18952 ft | 418 kts | 19° |
| 2026-05-04 13:19 | 25.14603 | -80.97994 | 18401 ft | 415 kts | 19° |
| 2026-05-04 13:19 | 25.17232 | -80.96692 | 17798 ft | 412 kts | 19° |
| 2026-05-04 13:19 | 25.19837 | -80.95401 | 17238 ft | 407 kts | 19° |
| 2026-05-04 13:20 | 25.22410 | -80.94127 | 16701 ft | 403 kts | 19° |
| 2026-05-04 13:20 | 25.24953 | -80.92867 | 16174 ft | 398 kts | 19° |
| 2026-05-04 13:20 | 25.27464 | -80.91622 | 15657 ft | 393 kts | 19° |
| 2026-05-04 13:20 | 25.29918 | -80.90405 | 15145 ft | 389 kts | 18° |
| 2026-05-04 13:21 | 25.32374 | -80.89187 | 14634 ft | 385 kts | 18° |
| 2026-05-04 13:21 | 25.34804 | -80.87980 | 14131 ft | 381 kts | 18° |
| 2026-05-04 13:21 | 25.37161 | -80.86804 | 13605 ft | 358 kts | 18° |
| 2026-05-04 13:21 | 25.39351 | -80.85747 | 13159 ft | 334 kts | 13° |
| 2026-05-04 13:22 | 25.41516 | -80.84811 | 12710 ft | 333 kts | 17° |
| 2026-05-04 13:22 | 25.43624 | -80.83777 | 12280 ft | 330 kts | 18° |
| 2026-05-04 13:22 | 25.45740 | -80.82865 | 11855 ft | 320 kts | 9° |
| 2026-05-04 13:22 | 25.47858 | -80.82135 | 11423 ft | 318 kts | 14° |
| 2026-05-04 13:23 | 25.49921 | -80.81297 | 11010 ft | 314 kts | 15° |
| 2026-05-04 13:23 | 25.51973 | -80.80494 | 10600 ft | 310 kts | 14° |
| 2026-05-04 13:23 | 25.54008 | -80.79742 | 10202 ft | 307 kts | 14° |
| 2026-05-04 13:23 | 25.56021 | -80.78994 | 9779 ft | 304 kts | 14° |
| 2026-05-04 13:24 | 25.57956 | -80.78257 | 9367 ft | 290 kts | 14° |
| 2026-05-04 13:24 | 25.59874 | -80.77530 | 8989 ft | 289 kts | 14° |
| 2026-05-04 13:24 | 25.61764 | -80.76817 | 8604 ft | 285 kts | 15° |
| 2026-05-04 13:25 | 25.65217 | -80.74855 | 7877 ft | 285 kts | 45° |
| 2026-05-04 13:25 | 25.66454 | -80.73176 | 7519 ft | 285 kts | 50° |
| 2026-05-04 13:25 | 25.67631 | -80.71415 | 7136 ft | 283 kts | 52° |
| 2026-05-04 13:25 | 25.68799 | -80.69661 | 6763 ft | 282 kts | 51° |
| 2026-05-04 13:26 | 25.69596 | -80.68496 | 6512 ft | 279 kts | 51° |
| 2026-05-04 13:26 | 25.70112 | -80.67749 | 6338 ft | 278 kts | 51° |
| 2026-05-04 13:26 | 25.71281 | -80.66052 | 5971 ft | 277 kts | 50° |
| 2026-05-04 13:26 | 25.72453 | -80.64342 | 5601 ft | 278 kts | 51° |
| 2026-05-04 13:27 | 25.73616 | -80.62636 | 5241 ft | 277 kts | 51° |
| 2026-05-04 13:27 | 25.74775 | -80.60938 | 4863 ft | 273 kts | 51° |
| 2026-05-04 13:27 | 25.75910 | -80.59278 | 4500 ft | 268 kts | 51° |
| 2026-05-04 13:27 | 25.77023 | -80.57641 | 4145 ft | 263 kts | 53° |
| 2026-05-04 13:28 | 25.77714 | -80.55801 | 3921 ft | 258 kts | 81° |
| 2026-05-04 13:28 | 25.78000 | -80.53918 | 3962 ft | 236 kts | 75° |
| 2026-05-04 13:28 | 25.78390 | -80.52237 | 3903 ft | 220 kts | 73° |
| 2026-05-04 13:28 | 25.78800 | -80.50620 | 3554 ft | 216 kts | 67° |
| 2026-05-04 13:29 | 25.79227 | -80.49060 | 3265 ft | 206 kts | 78° |
| 2026-05-04 13:29 | 25.79342 | -80.47539 | 3016 ft | 196 kts | 84° |
| 2026-05-04 13:29 | 25.79412 | -80.46039 | 2757 ft | 192 kts | 85° |
| 2026-05-04 13:29 | 25.79473 | -80.44559 | 2491 ft | 192 kts | 84° |
| 2026-05-04 13:30 | 25.79531 | -80.43105 | 2258 ft | 183 kts | 84° |
| 2026-05-04 13:30 | 25.79585 | -80.41732 | 2021 ft | 175 kts | 84° |
| 2026-05-04 13:30 | 25.79635 | -80.40449 | 1806 ft | 159 kts | 84° |
| 2026-05-04 13:30 | 25.79692 | -80.39232 | 1596 ft | 158 kts | 82° |
| 2026-05-04 13:31 | 25.79749 | -80.38017 | 1392 ft | 157 kts | 84° |
| 2026-05-04 13:31 | 25.79793 | -80.36819 | 1183 ft | 155 kts | 83° |
| 2026-05-04 13:31 | 25.79847 | -80.35626 | 995 ft | 156 kts | 83° |
| 2026-05-04 13:31 | 25.79876 | -80.34437 | 827 ft | 151 kts | 84° |
| 2026-05-04 13:32 | 25.79930 | -80.33259 | 655 ft | 154 kts | 83° |
| 2026-05-04 13:32 | 25.79989 | -80.32055 | 432 ft | 157 kts | 84° |
| 2026-05-04 13:32 | 25.80037 | -80.30869 | 237 ft | 151 kts | 85° |
| 2026-05-04 13:32 | 25.80091 | -80.29708 | 21 ft | 140 kts | 86° |
| 2026-05-04 13:33 | 25.80123 | -80.28930 | 27 ft | 79 kts | 87° |
| 2026-05-04 13:33 | 25.80145 | -80.28389 | 20 ft | 62 kts | 87° |
| 2026-05-04 13:33 | 25.80151 | -80.28081 | 19 ft | 23 kts | 101° |
| 2026-05-04 13:33 | 25.80092 | -80.27950 | 19 ft | 16 kts | 138° |
| 2026-05-04 13:34 | 25.79999 | -80.27908 | 20 ft | 11 kts | 191° |
| 2026-05-04 13:34 | 25.79972 | -80.27940 | 20 ft | 5 kts | 253° |
| 2026-05-04 13:34 | 25.79968 | -80.27984 | 20 ft | 7 kts | 266° |
| 2026-05-04 13:34 | 25.79965 | -80.28048 | 20 ft | 10 kts | 267° |
| 2026-05-04 13:35 | 25.79960 | -80.28152 | 20 ft | 18 kts | 267° |
| 2026-05-04 13:35 | 25.79946 | -80.28480 | 20 ft | 21 kts | 268° |
| 2026-05-04 13:35 | 25.79940 | -80.28642 | 21 ft | 21 kts | 268° |
| 2026-05-04 13:36 | 25.79934 | -80.28799 | 21 ft | 14 kts | 268° |
| 2026-05-04 13:36 | 25.79927 | -80.28825 | 21 ft | 0 kts | 219° |
| 2026-05-04 13:36 | 25.79920 | -80.28826 | 21 ft | 2 kts | 187° |
| 2026-05-04 13:36 | 25.79896 | -80.28825 | 22 ft | 4 kts | 178° |
| 2026-05-04 13:37 | 25.79848 | -80.28823 | 20 ft | 10 kts | 177° |
| 2026-05-04 13:37 | 25.79770 | -80.28818 | 20 ft | 12 kts | 177° |
| 2026-05-04 13:37 | 25.79684 | -80.28814 | 20 ft | 13 kts | 177° |
| 2026-05-04 13:37 | 25.79641 | -80.28809 | 20 ft | 6 kts | 169° |
| 2026-05-04 13:38 | 25.79606 | -80.28802 | 20 ft | 1 kts | 144° |
| 2026-05-04 13:38 | 25.79605 | -80.28797 | 20 ft | 1 kts | 116° |
| 2026-05-04 13:38 | 25.79606 | -80.28791 | 22 ft | 1 kts | 83° |
| 2026-05-04 13:38 | 25.79613 | -80.28753 | 20 ft | 9 kts | 78° |
| 2026-05-04 13:39 | 25.79622 | -80.28664 | 20 ft | 13 kts | 84° |
| 2026-05-04 13:39 | 25.79620 | -80.28595 | 20 ft | 3 kts | 121° |
| 2026-05-04 13:39 | 25.79606 | -80.28568 | 20 ft | 5 kts | 120° |
| 2026-05-04 13:39 | 25.79590 | -80.28533 | 20 ft | 6 kts | 118° |
| 2026-05-04 13:40 | 25.79570 | -80.28492 | 20 ft | 4 kts | 118° |
| 2026-05-04 13:40 | 25.79567 | -80.28486 | 20 ft | 0 kts | 118° |